Grande Mariner — WCY6594 — position and weather

sailwx.info

Track history (hours):
 
Tides and Currents Weather Stations Pressure Air Temp Water Temp Dewpoint Dewpoint Depression Visibility Wind Speed Wind Dir Waves Ship Positions

Grande Mariner

Owner: AMERICAN CANADIAN CARIBBEAN LINE INC, WARREN, RI. More information available from US FCC via Universal Licensing System and Coast Guard Vessel Documentation Center.

Last reported at 2015-Aug-03 11:19 UTC. Time now 2015-Aug-04 03:25 UTC.
Position N 44°20' W 087°26'.

Length 56 m; draft 2 m.

Type: Passenger vessel. MMSI: 369024000.

Date/timePositionNaut miles runAvg speedWind from/ knotsBaromVisibWave heightAir tempDewpointWater temp
2015-Aug-03 11:19N 44°20' W 087°26'1210.0
2015-Aug-03 10:04N 44°08' W 087°29'  
2015-Jul-28 19:32N 44°33' W 087°21'23 2.8
2015-Jul-28 11:33N 44°53' W 087°07'1010.2
2015-Jul-28 10:33N 45°02' W 086°59'1010.1
2015-Jul-28 09:33N 45°10' W 086°52'10 9.9
2015-Jul-28 08:33N 45°19' W 086°44'1010.2
2015-Jul-28 07:33N 45°27' W 086°36'1010.1
2015-Jul-28 06:33N 45°34' W 086°26'1010.4
2015-Jul-28 05:33N 45°40' W 086°13'1010.4
2015-Jul-28 04:33N 45°46' W 086°01'1010.5
2015-Jul-28 03:33N 45°52' W 085°48'1010.3
2015-Jul-28 02:33N 45°53' W 085°34'1010.2
2015-Jul-28 01:33N 45°52' W 085°19'1010.3
2015-Jul-28 00:33N 45°51' W 085°04'1010.3
2015-Jul-27 23:33N 45°49' W 084°50'5 4.0
2015-Jul-27 22:11N 45°52' W 084°43'5 7.5
2015-Jul-27 21:33N 45°51' W 084°37'0 0.1
2015-Jul-27 20:33N 45°51' W 084°37'0 0.0
2015-Jul-27 19:33N 45°51' W 084°37'0 0.0
2015-Jul-27 18:33N 45°51' W 084°37'0 0.0
2015-Jul-27 17:33N 45°51' W 084°37'0 0.0
2015-Jul-27 16:33N 45°51' W 084°37'0 0.0
2015-Jul-27 15:33N 45°51' W 084°37'0 0.0
2015-Jul-27 14:33N 45°51' W 084°37'0 0.0
2015-Jul-27 13:33N 45°51' W 084°37'0 0.0
2015-Jul-27 12:33N 45°51' W 084°37'0 0.0
2015-Jul-27 11:33N 45°51' W 084°37'0 0.0
2015-Jul-27 10:33N 45°51' W 084°37'0 0.0
2015-Jul-27 09:33N 45°51' W 084°37'0 0.0
2015-Jul-27 08:33N 45°51' W 084°37'0 0.0
2015-Jul-27 07:33N 45°51' W 084°37'0 0.0
2015-Jul-27 06:33N 45°51' W 084°37'0 0.0
2015-Jul-27 05:33N 45°51' W 084°37'0 0.0
2015-Jul-27 04:33N 45°51' W 084°37'0 0.0
2015-Jul-27 03:33N 45°51' W 084°37'0 0.0
2015-Jul-27 02:33N 45°51' W 084°37'0 0.0
2015-Jul-27 01:33N 45°51' W 084°37'0 0.0
2015-Jul-27 00:33N 45°51' W 084°37'6 5.9
2015-Jul-26 23:32N 45°49' W 084°45'1010.6
2015-Jul-26 22:33N 45°50' W 085°00'9 8.7
2015-Jul-26 21:33N 45°45' W 085°11'1010.3
2015-Jul-26 20:33N 45°44' W 085°25'4 4.2
2015-Jul-26 19:33N 45°45' W 085°31'0 0.0
2015-Jul-26 18:33N 45°45' W 085°31'0 0.0
2015-Jul-26 17:33N 45°45' W 085°31'0 0.0
2015-Jul-26 16:33N 45°45' W 085°31'0 0.0
2015-Jul-26 15:33N 45°45' W 085°31'9 8.7
2015-Jul-26 14:33N 45°37' W 085°26'1010.1
2015-Jul-26 13:33N 45°27' W 085°31'1110.5
2015-Jul-26 12:33N 45°18' W 085°39'1010.5
2015-Jul-26 11:33N 45°10' W 085°48'1010.4
2015-Jul-26 10:33N 45°01' W 085°56'1110.6
2015-Jul-26 09:33N 44°56' W 086°09'1010.5
2015-Jul-26 08:33N 44°47' W 086°18'  
Track history (hours):
 
Tides and Currents Weather Stations Pressure Air Temp Water Temp Dewpoint Dewpoint Depression Visibility Wind Speed Wind Dir Waves Ship Positions

Grande Mariner

Owner: AMERICAN CANADIAN CARIBBEAN LINE INC, WARREN, RI. More information available from US FCC via Universal Licensing System and Coast Guard Vessel Documentation Center.

Last reported at 2015-Aug-03 11:19 UTC. Time now 2015-Aug-04 03:25 UTC.
Position N 44°20' W 087°26'.

Length 56 m; draft 2 m.

Type: Passenger vessel. MMSI: 369024000.

Date/timePositionNaut miles runAvg speedWind from/ knotsBaromVisibWave heightAir tempDewpointWater temp
2015-Aug-03 11:19N 44°20' W 087°26'1210.0
2015-Aug-03 10:04N 44°08' W 087°29'  
2015-Jul-28 19:32N 44°33' W 087°21'23 2.8
2015-Jul-28 11:33N 44°53' W 087°07'1010.2
2015-Jul-28 10:33N 45°02' W 086°59'1010.1
2015-Jul-28 09:33N 45°10' W 086°52'10 9.9
2015-Jul-28 08:33N 45°19' W 086°44'1010.2
2015-Jul-28 07:33N 45°27' W 086°36'1010.1
2015-Jul-28 06:33N 45°34' W 086°26'1010.4
2015-Jul-28 05:33N 45°40' W 086°13'1010.4
2015-Jul-28 04:33N 45°46' W 086°01'1010.5
2015-Jul-28 03:33N 45°52' W 085°48'1010.3
2015-Jul-28 02:33N 45°53' W 085°34'1010.2
2015-Jul-28 01:33N 45°52' W 085°19'1010.3
2015-Jul-28 00:33N 45°51' W 085°04'1010.3
2015-Jul-27 23:33N 45°49' W 084°50'5 4.0
2015-Jul-27 22:11N 45°52' W 084°43'5 7.5
2015-Jul-27 21:33N 45°51' W 084°37'0 0.1
2015-Jul-27 20:33N 45°51' W 084°37'0 0.0
2015-Jul-27 19:33N 45°51' W 084°37'0 0.0
2015-Jul-27 18:33N 45°51' W 084°37'0 0.0
2015-Jul-27 17:33N 45°51' W 084°37'0 0.0
2015-Jul-27 16:33N 45°51' W 084°37'0 0.0
2015-Jul-27 15:33N 45°51' W 084°37'0 0.0
2015-Jul-27 14:33N 45°51' W 084°37'0 0.0
2015-Jul-27 13:33N 45°51' W 084°37'0 0.0
2015-Jul-27 12:33N 45°51' W 084°37'0 0.0
2015-Jul-27 11:33N 45°51' W 084°37'0 0.0
2015-Jul-27 10:33N 45°51' W 084°37'0 0.0
2015-Jul-27 09:33N 45°51' W 084°37'0 0.0
2015-Jul-27 08:33N 45°51' W 084°37'0 0.0
2015-Jul-27 07:33N 45°51' W 084°37'0 0.0
2015-Jul-27 06:33N 45°51' W 084°37'0 0.0
2015-Jul-27 05:33N 45°51' W 084°37'0 0.0
2015-Jul-27 04:33N 45°51' W 084°37'0 0.0
2015-Jul-27 03:33N 45°51' W 084°37'0 0.0
2015-Jul-27 02:33N 45°51' W 084°37'0 0.0
2015-Jul-27 01:33N 45°51' W 084°37'0 0.0
2015-Jul-27 00:33N 45°51' W 084°37'6 5.9
2015-Jul-26 23:32N 45°49' W 084°45'1010.6
2015-Jul-26 22:33N 45°50' W 085°00'9 8.7
2015-Jul-26 21:33N 45°45' W 085°11'1010.3
2015-Jul-26 20:33N 45°44' W 085°25'4 4.2
2015-Jul-26 19:33N 45°45' W 085°31'0 0.0
2015-Jul-26 18:33N 45°45' W 085°31'0 0.0
2015-Jul-26 17:33N 45°45' W 085°31'0 0.0
2015-Jul-26 16:33N 45°45' W 085°31'0 0.0
2015-Jul-26 15:33N 45°45' W 085°31'9 8.7
2015-Jul-26 14:33N 45°37' W 085°26'1010.1
2015-Jul-26 13:33N 45°27' W 085°31'1110.5
2015-Jul-26 12:33N 45°18' W 085°39'1010.5
2015-Jul-26 11:33N 45°10' W 085°48'1010.4
2015-Jul-26 10:33N 45°01' W 085°56'1110.6
2015-Jul-26 09:33N 44°56' W 086°09'1010.5
2015-Jul-26 08:33N 44°47' W 086°18'  

Dump ship's entire track history